createdAt,value
2018-11-12T00:01:05.465Z,67.36
2018-11-12T00:03:32.024Z,67.22
2018-11-12T00:05:58.524Z,66.64
2018-11-12T00:08:25.081Z,66.05
2018-11-12T00:10:51.558Z,65.64
2018-11-12T00:13:18.158Z,65.70
2018-11-12T00:15:45.697Z,66.09
2018-11-12T00:18:12.245Z,68.09
2018-11-12T00:20:38.903Z,68.54
2018-11-12T00:23:05.435Z,69.09
2018-11-12T00:25:31.965Z,68.86
2018-11-12T00:27:58.435Z,69.26
2018-11-12T00:30:25.119Z,69.26
2018-11-12T00:32:51.653Z,69.01
2018-11-12T00:35:18.133Z,68.64
2018-11-12T00:37:44.698Z,67.99
2018-11-12T00:40:11.176Z,68.95
2018-11-12T00:42:37.813Z,69.20
2018-11-12T00:45:04.502Z,69.15
2018-11-12T00:47:31.090Z,69.69
2018-11-12T00:49:57.898Z,68.66
2018-11-12T00:52:24.530Z,68.63
2018-11-12T00:54:51.260Z,68.19
2018-11-12T00:57:17.950Z,68.29
2018-11-12T00:59:44.614Z,68.81
2018-11-12T01:02:11.276Z,68.61
2018-11-12T01:04:37.778Z,67.67
2018-11-12T01:07:04.301Z,67.38
2018-11-12T01:09:30.979Z,67.38
2018-11-12T01:11:57.632Z,68.18
2018-11-12T01:14:24.409Z,68.15
2018-11-12T01:16:50.933Z,68.62
2018-11-12T01:19:17.515Z,68.95
2018-11-12T01:21:44.236Z,67.46
2018-11-12T01:24:10.818Z,67.26
2018-11-12T01:26:37.361Z,67.00
2018-11-12T01:29:03.930Z,66.50
2018-11-12T01:34:14.686Z,67.19
2018-11-12T01:36:43.830Z,66.88
2018-11-12T01:39:11.953Z,67.10
2018-11-12T01:41:41.374Z,67.34
2018-11-12T01:44:08.653Z,68.20
2018-11-12T01:46:36.076Z,67.48
2018-11-12T01:49:03.730Z,67.31
2018-11-12T01:51:30.786Z,67.52
2018-11-12T01:53:57.729Z,67.77
2018-11-12T01:56:25.601Z,67.43
2018-11-12T01:58:52.672Z,67.41
2018-11-12T02:01:19.980Z,67.30
2018-11-12T02:03:47.925Z,67.86
2018-11-12T02:06:16.043Z,67.49
2018-11-12T02:08:44.883Z,67.39
2018-11-12T02:11:12.643Z,66.93
2018-11-12T02:13:41.563Z,67.79
2018-11-12T02:16:11.631Z,68.54
2018-11-12T02:18:40.708Z,68.21
2018-11-12T02:21:08.530Z,68.34
2018-11-12T02:23:35.953Z,68.06
2018-11-12T02:26:03.491Z,67.25
2018-11-12T02:28:31.599Z,67.44
2018-11-12T02:30:59.657Z,68.13
2018-11-12T02:33:26.442Z,69.23
2018-11-12T02:35:54.016Z,68.42
2018-11-12T02:38:21.997Z,67.94
2018-11-12T02:40:50.491Z,67.09
2018-11-12T02:45:51.154Z,66.45
2018-11-12T02:48:20.141Z,66.35
2018-11-12T02:50:48.312Z,66.57
2018-11-12T02:53:16.900Z,66.67
2018-11-12T02:55:45.713Z,65.68
2018-11-12T02:58:13.276Z,65.74
2018-11-12T03:00:40.487Z,66.57
2018-11-12T03:03:08.358Z,67.17
2018-11-12T03:05:35.615Z,66.42
2018-11-12T03:08:03.762Z,66.58
2018-11-12T03:10:31.358Z,66.85
2018-11-12T03:12:58.289Z,66.99
2018-11-12T03:15:25.652Z,67.54
2018-11-12T03:17:52.300Z,68.83
2018-11-12T03:20:20.369Z,68.05
2018-11-12T03:22:48.809Z,67.62
2018-11-12T03:25:17.420Z,67.67
2018-11-12T03:27:44.539Z,68.27
2018-11-12T03:30:12.714Z,68.95
2018-11-12T03:32:40.849Z,69.41
2018-11-12T03:35:09.050Z,69.34
2018-11-12T03:37:38.861Z,70.00
2018-11-12T03:40:05.880Z,68.63
2018-11-12T03:42:34.983Z,68.25
2018-11-12T03:45:04.092Z,68.25
2018-11-12T03:47:31.899Z,68.14
2018-11-12T03:49:59.217Z,67.76
2018-11-12T03:52:29.044Z,69.11
2018-11-12T03:54:56.871Z,70.08
2018-11-12T03:57:23.972Z,70.35
2018-11-12T03:59:53.729Z,69.71
2018-11-12T04:02:20.215Z,68.56
2018-11-12T04:04:48.539Z,68.13
2018-11-12T04:07:15.364Z,68.24
2018-11-12T04:09:43.656Z,69.01
2018-11-12T04:12:12.840Z,68.35
2018-11-12T04:14:40.421Z,67.94
2018-11-12T04:17:08.382Z,68.66
2018-11-12T04:19:35.661Z,68.59
2018-11-12T04:22:02.244Z,68.95
2018-11-12T04:24:28.797Z,69.20
2018-11-12T04:26:55.339Z,69.26
2018-11-12T04:29:21.854Z,69.65
2018-11-12T04:31:48.635Z,69.62
2018-11-12T04:34:16.319Z,69.88
2018-11-12T04:36:43.193Z,69.72
2018-11-12T04:39:09.737Z,68.94
2018-11-12T04:41:36.265Z,67.81
2018-11-12T04:44:02.919Z,67.46
2018-11-12T04:46:30.000Z,68.00
2018-11-12T04:48:57.442Z,67.22
2018-11-12T04:51:23.942Z,67.27
2018-11-12T04:53:50.525Z,66.62
2018-11-12T04:56:17.238Z,67.14
2018-11-12T04:58:43.735Z,68.32
2018-11-12T05:01:10.967Z,68.95
2018-11-12T05:03:37.519Z,69.12
2018-11-12T05:06:04.107Z,69.02
2018-11-12T05:08:30.696Z,68.46
2018-11-12T05:10:57.140Z,68.06
2018-11-12T05:13:23.728Z,67.94
2018-11-12T05:15:50.291Z,68.03
2018-11-12T05:18:16.801Z,67.63
2018-11-12T05:20:43.336Z,68.40
2018-11-12T05:23:09.811Z,69.48
2018-11-12T05:25:36.329Z,68.92
2018-11-12T05:28:02.934Z,68.81
2018-11-12T05:30:29.391Z,68.76
2018-11-12T05:32:57.752Z,68.78
2018-11-12T05:35:24.347Z,67.84
2018-11-12T05:37:50.977Z,67.65
2018-11-12T05:40:17.605Z,68.62
2018-11-12T05:42:44.705Z,68.67
2018-11-12T05:45:11.190Z,69.21
2018-11-12T05:47:38.269Z,69.43
2018-11-12T05:50:04.899Z,70.89
2018-11-12T05:52:31.497Z,71.44
2018-11-12T05:54:58.051Z,72.20
2018-11-12T05:57:24.689Z,71.80
2018-11-12T05:59:51.162Z,70.58
2018-11-12T06:02:17.745Z,71.19
2018-11-12T06:04:44.329Z,71.37
2018-11-12T06:07:11.005Z,71.15
2018-11-12T06:09:37.595Z,70.69
2018-11-12T06:12:04.126Z,69.92
2018-11-12T06:14:33.502Z,69.24
2018-11-12T06:17:00.008Z,68.89
2018-11-12T06:19:26.837Z,68.37
2018-11-12T06:21:53.284Z,68.51
2018-11-12T06:24:19.834Z,68.21
2018-11-12T06:26:46.314Z,68.53
2018-11-12T06:29:12.846Z,67.95
2018-11-12T06:31:39.326Z,67.80
2018-11-12T06:34:05.905Z,67.95
2018-11-12T06:36:32.467Z,69.22
2018-11-12T06:38:59.217Z,70.08
2018-11-12T06:41:25.800Z,71.23
2018-11-12T06:43:53.392Z,71.19
2018-11-12T06:46:20.296Z,71.01
2018-11-12T06:48:46.887Z,71.95
2018-11-12T06:51:13.392Z,72.75
2018-11-12T06:53:44.829Z,72.56
2018-11-12T06:56:12.299Z,71.61
2018-11-12T06:58:38.760Z,70.98
2018-11-12T07:01:05.367Z,71.27
2018-11-12T07:03:32.076Z,70.21
2018-11-12T07:05:58.588Z,70.47
2018-11-12T07:08:25.613Z,70.93
2018-11-12T07:10:52.078Z,71.09
2018-11-12T07:13:18.570Z,72.38
2018-11-12T07:15:45.377Z,72.75
2018-11-12T07:18:11.924Z,72.13
2018-11-12T07:20:38.598Z,71.90
2018-11-12T07:23:05.212Z,71.73
2018-11-12T07:25:32.186Z,71.92
2018-11-12T07:27:58.851Z,71.98
2018-11-12T07:30:25.337Z,71.65
2018-11-12T07:32:52.296Z,71.16
2018-11-12T07:35:19.025Z,71.04
2018-11-12T07:37:46.510Z,69.29
2018-11-12T07:40:13.150Z,69.71
2018-11-12T07:42:39.665Z,69.54
2018-11-12T07:45:06.258Z,69.21
2018-11-12T07:47:32.724Z,69.01
2018-11-12T07:49:59.367Z,69.17
2018-11-12T07:52:25.881Z,68.02
2018-11-12T07:54:52.419Z,67.39
2018-11-12T07:57:18.878Z,66.61
2018-11-12T07:59:45.429Z,66.47
2018-11-12T08:02:11.972Z,66.40
2018-11-12T08:04:38.466Z,67.06
2018-11-12T08:07:05.020Z,67.21
2018-11-12T08:09:31.621Z,66.36
2018-11-12T08:11:58.420Z,65.24
2018-11-12T08:14:24.988Z,65.75
2018-11-12T08:16:51.953Z,64.58
2018-11-12T08:19:18.412Z,64.80
2018-11-12T08:21:45.110Z,63.79
2018-11-12T08:24:11.816Z,63.25
2018-11-12T08:26:38.443Z,62.62
2018-11-12T08:29:05.150Z,62.66
2018-11-12T08:31:31.654Z,62.34
2018-11-12T08:33:58.202Z,61.68
2018-11-12T08:36:24.724Z,61.32
2018-11-12T08:38:52.029Z,60.75
2018-11-12T08:41:18.512Z,59.78
2018-11-12T08:43:44.979Z,59.45
2018-11-12T08:46:11.499Z,58.87
2018-11-12T08:48:38.098Z,59.00
2018-11-12T08:51:04.745Z,59.10
2018-11-12T08:53:31.570Z,59.01
2018-11-12T08:55:58.055Z,57.85
2018-11-12T08:58:24.595Z,56.76
2018-11-12T09:00:52.214Z,57.40
2018-11-12T09:03:18.864Z,57.71
2018-11-12T09:05:45.363Z,57.82
2018-11-12T09:08:12.127Z,56.37
2018-11-12T09:10:38.565Z,56.56
2018-11-12T09:13:05.394Z,55.89
2018-11-12T09:15:31.928Z,56.09
2018-11-12T09:17:58.572Z,54.15
2018-11-12T09:20:25.032Z,53.89
2018-11-12T09:22:52.523Z,53.91
2018-11-12T09:25:19.006Z,53.81
2018-11-12T09:27:45.453Z,53.79
2018-11-12T09:30:11.928Z,54.42
2018-11-12T09:32:38.748Z,54.97
2018-11-12T09:35:05.080Z,55.26
2018-11-12T09:37:31.767Z,54.82
2018-11-12T09:39:58.248Z,54.23
2018-11-12T09:42:24.714Z,53.64
2018-11-12T09:44:52.473Z,51.99
2018-11-12T09:47:18.933Z,52.41
2018-11-12T09:49:45.406Z,53.37
2018-11-12T09:52:11.881Z,52.16
2018-11-12T09:54:38.425Z,52.15
2018-11-12T09:57:05.018Z,52.98
2018-11-12T09:59:31.620Z,52.08
2018-11-12T10:01:58.883Z,53.21
2018-11-12T10:04:25.752Z,53.67
2018-11-12T10:06:54.489Z,53.98
2018-11-12T10:09:21.019Z,53.10
2018-11-12T10:11:48.584Z,53.22
2018-11-12T10:14:15.071Z,53.50
2018-11-12T10:16:42.466Z,53.44
2018-11-12T10:19:06.309Z,52.67
2018-11-12T10:21:32.940Z,51.99
2018-11-12T10:23:59.675Z,51.33
2018-11-12T10:26:26.192Z,51.25
2018-11-12T10:28:52.835Z,51.30
2018-11-12T10:31:19.336Z,50.40
2018-11-12T10:33:45.802Z,49.40
2018-11-12T10:36:12.335Z,49.24
2018-11-12T10:38:38.793Z,47.44
2018-11-12T10:41:05.283Z,49.19
2018-11-12T10:43:32.065Z,49.28
2018-11-12T10:45:58.541Z,48.60
2018-11-12T10:48:25.087Z,50.85
2018-11-12T10:50:56.378Z,48.35
2018-11-12T10:53:19.518Z,47.83
2018-11-12T10:55:46.165Z,48.89
2018-11-12T10:58:12.717Z,48.38
2018-11-12T11:00:39.227Z,48.00
2018-11-12T11:03:05.906Z,47.20
2018-11-12T11:05:32.381Z,48.06
2018-11-12T11:07:58.866Z,47.46
2018-11-12T11:10:25.514Z,46.96
2018-11-12T11:12:53.118Z,47.24
2018-11-12T11:15:19.604Z,48.04
2018-11-12T11:17:46.264Z,46.77
2018-11-12T11:20:12.798Z,46.73
2018-11-12T11:22:39.294Z,45.88
2018-11-12T11:25:05.821Z,46.27
2018-11-12T11:27:32.323Z,44.85
2018-11-12T11:29:58.772Z,46.52
2018-11-12T11:32:25.272Z,46.16
2018-11-12T11:34:51.891Z,45.89
2018-11-12T11:37:18.333Z,46.08
2018-11-12T11:39:44.897Z,45.13
2018-11-12T11:42:11.426Z,47.12
2018-11-12T11:44:37.949Z,45.63
2018-11-12T11:47:04.422Z,44.68
2018-11-12T11:49:30.926Z,46.46
2018-11-12T11:51:57.435Z,45.94
2018-11-12T11:54:23.895Z,45.80
2018-11-12T11:56:50.478Z,44.60
2018-11-12T11:59:17.007Z,45.54
2018-11-12T12:01:43.523Z,44.57
2018-11-12T12:04:10.458Z,43.69
2018-11-12T12:06:36.990Z,42.40
2018-11-12T12:09:03.496Z,44.27
2018-11-12T12:11:30.165Z,45.76
2018-11-12T12:13:56.728Z,45.66
2018-11-12T12:16:23.706Z,44.38
2018-11-12T12:18:50.188Z,45.13
2018-11-12T12:21:16.740Z,43.46
2018-11-12T12:23:43.229Z,43.29
2018-11-12T12:26:09.728Z,43.75
2018-11-12T12:28:36.618Z,42.20
2018-11-12T12:31:03.060Z,42.43
2018-11-12T12:33:29.586Z,43.77
2018-11-12T12:35:56.076Z,42.99
2018-11-12T12:38:23.814Z,41.95
2018-11-12T12:40:50.353Z,42.68
2018-11-12T12:43:16.831Z,43.38
2018-11-12T12:45:43.377Z,43.37
2018-11-12T12:48:10.035Z,42.11
2018-11-12T12:50:36.614Z,43.08
2018-11-12T12:53:03.093Z,42.74
2018-11-12T12:55:30.045Z,42.79
2018-11-12T12:57:56.703Z,43.69
2018-11-12T13:00:23.984Z,43.37
2018-11-12T13:02:50.585Z,41.68
2018-11-12T13:05:17.051Z,41.96
2018-11-12T13:07:43.532Z,43.92
2018-11-12T13:10:10.093Z,41.16
2018-11-12T13:12:36.592Z,40.97
2018-11-12T13:15:03.224Z,42.36
2018-11-12T13:17:30.059Z,42.19
2018-11-12T13:19:56.502Z,42.90
2018-11-12T13:22:24.075Z,40.77
2018-11-12T13:24:50.756Z,40.24
2018-11-12T13:27:17.205Z,40.56
2018-11-12T13:29:43.888Z,42.15
2018-11-12T13:32:10.601Z,42.11
2018-11-12T13:34:37.096Z,42.17
2018-11-12T13:37:03.567Z,43.65
2018-11-12T13:39:30.161Z,42.56
2018-11-12T13:41:56.773Z,41.78
2018-11-12T13:44:24.246Z,40.84
2018-11-12T13:46:50.791Z,41.72
2018-11-12T13:49:17.652Z,40.88
2018-11-12T13:51:44.297Z,42.56
2018-11-12T13:54:10.793Z,41.54
2018-11-12T13:56:37.291Z,41.96
2018-11-12T13:59:03.780Z,41.92
2018-11-12T14:01:30.239Z,42.87
2018-11-12T14:03:56.686Z,43.77
2018-11-12T14:06:23.127Z,43.53
2018-11-12T14:08:49.701Z,44.34
2018-11-12T14:11:16.152Z,43.69
2018-11-12T14:13:42.592Z,43.92
2018-11-12T14:16:09.089Z,45.08
2018-11-12T14:18:35.548Z,45.35
2018-11-12T14:21:02.173Z,45.33
2018-11-12T14:23:28.785Z,46.06
2018-11-12T14:25:55.261Z,47.07
2018-11-12T14:28:21.816Z,48.28
2018-11-12T14:30:48.427Z,48.68
2018-11-12T14:33:15.053Z,49.98
2018-11-12T14:35:41.780Z,49.72
2018-11-12T14:38:08.401Z,49.26
2018-11-12T14:40:34.962Z,48.99
2018-11-12T14:43:01.410Z,49.15
2018-11-12T14:45:28.913Z,47.95
2018-11-12T14:47:55.347Z,48.51
2018-11-12T14:50:21.897Z,48.71
2018-11-12T14:52:48.445Z,48.94
2018-11-12T14:55:14.977Z,48.76
2018-11-12T14:57:41.669Z,49.30
2018-11-12T15:00:08.158Z,49.42
2018-11-12T15:02:34.649Z,49.10
2018-11-12T15:05:01.165Z,49.44
2018-11-12T15:07:27.854Z,49.57
2018-11-12T15:09:54.989Z,50.70
2018-11-12T15:12:21.568Z,50.83
2018-11-12T15:14:48.091Z,51.15
2018-11-12T15:17:14.705Z,51.08
2018-11-12T15:19:41.206Z,51.89
2018-11-12T15:22:07.687Z,51.66
2018-11-12T15:24:34.189Z,52.16
2018-11-12T15:27:00.707Z,52.04
2018-11-12T15:29:27.201Z,52.42
2018-11-12T15:31:55.006Z,52.19
2018-11-12T15:34:21.830Z,52.08
2018-11-12T15:36:48.383Z,51.93
2018-11-12T15:39:15.014Z,52.24
2018-11-12T15:41:41.504Z,52.75
2018-11-12T15:44:08.157Z,54.04
2018-11-12T15:46:34.657Z,53.50
2018-11-12T15:49:01.119Z,53.64
2018-11-12T15:51:27.651Z,54.24
2018-11-12T15:53:55.175Z,53.91
2018-11-12T15:56:22.155Z,54.71
2018-11-12T15:58:52.214Z,55.52
2018-11-12T16:01:18.684Z,55.05
2018-11-12T16:03:45.434Z,55.05
2018-11-12T16:06:12.128Z,57.00
2018-11-12T16:08:38.613Z,56.52
2018-11-12T16:11:05.111Z,57.49
2018-11-12T16:13:31.712Z,57.42
2018-11-12T16:15:58.203Z,57.64
2018-11-12T16:18:25.556Z,58.09
2018-11-12T16:20:52.084Z,59.75
2018-11-12T16:23:18.643Z,58.10
2018-11-12T16:25:45.094Z,58.04
2018-11-12T16:28:11.696Z,57.65
2018-11-12T16:30:38.204Z,57.56
2018-11-12T16:33:04.701Z,59.41
2018-11-12T16:35:31.284Z,59.31
2018-11-12T16:37:57.740Z,58.79
2018-11-12T16:40:24.287Z,59.01
2018-11-12T16:42:50.921Z,58.95
2018-11-12T16:45:17.367Z,60.84
2018-11-12T16:47:43.805Z,60.00
2018-11-12T16:50:10.249Z,60.56
2018-11-12T16:52:36.772Z,61.39
2018-11-12T16:55:03.249Z,61.95
2018-11-12T16:57:30.116Z,62.56
2018-11-12T16:59:56.704Z,62.19
2018-11-12T17:02:23.201Z,61.58
2018-11-12T17:04:49.657Z,62.29
2018-11-12T17:07:16.148Z,60.83
2018-11-12T17:09:42.587Z,61.04
2018-11-12T17:12:09.180Z,62.48
2018-11-12T17:14:35.801Z,63.04
2018-11-12T17:17:02.613Z,63.36
2018-11-12T17:19:34.405Z,63.16
2018-11-12T17:22:00.864Z,62.02
2018-11-12T17:24:27.554Z,63.91
2018-11-12T17:26:54.048Z,63.90
2018-11-12T17:29:20.536Z,62.18
2018-11-12T17:31:47.058Z,62.72
2018-11-12T17:34:13.574Z,62.59
2018-11-12T17:36:40.275Z,62.85
2018-11-12T17:39:06.838Z,63.13
2018-11-12T17:41:33.436Z,62.35
2018-11-12T17:44:00.572Z,62.63
2018-11-12T17:46:27.196Z,63.32
2018-11-12T17:48:53.702Z,63.31
2018-11-12T17:51:20.256Z,62.91
2018-11-12T17:53:46.781Z,63.53
2018-11-12T17:56:13.550Z,62.49
2018-11-12T17:58:40.188Z,61.87
2018-11-12T18:01:07.037Z,61.17
2018-11-12T18:03:33.562Z,61.08
2018-11-12T18:06:00.708Z,61.72
2018-11-12T18:08:27.304Z,63.45
2018-11-12T18:10:53.881Z,63.04
2018-11-12T18:13:20.405Z,64.23
2018-11-12T18:15:46.865Z,63.25
2018-11-12T18:18:13.333Z,65.31
2018-11-12T18:20:39.848Z,66.08
2018-11-12T18:23:06.375Z,66.16
2018-11-12T18:25:33.013Z,64.65
2018-11-12T18:27:59.567Z,64.74
2018-11-12T18:30:26.369Z,63.71
2018-11-12T18:32:52.905Z,64.67
2018-11-12T18:35:19.471Z,64.36
2018-11-12T18:37:46.013Z,63.80
2018-11-12T18:40:18.756Z,65.51
2018-11-12T18:42:45.230Z,66.10
2018-11-12T18:45:11.847Z,65.80
2018-11-12T18:47:38.468Z,65.05
2018-11-12T18:50:07.016Z,65.20
2018-11-12T18:52:33.548Z,65.35
2018-11-12T18:55:00.345Z,64.81
2018-11-12T18:57:26.892Z,64.50
2018-11-12T18:59:55.686Z,65.22
2018-11-12T19:02:22.242Z,65.38
2018-11-12T19:04:48.723Z,65.08
2018-11-12T19:07:15.263Z,63.75
2018-11-12T19:09:41.779Z,64.76
2018-11-12T19:12:08.250Z,64.71
2018-11-12T19:14:34.780Z,65.38
2018-11-12T19:17:01.238Z,66.09
2018-11-12T19:19:27.706Z,65.70
2018-11-12T19:21:54.724Z,65.25
2018-11-12T19:24:21.306Z,65.20
2018-11-12T19:26:48.390Z,65.97
2018-11-12T19:29:14.921Z,64.76
2018-11-12T19:31:41.426Z,65.57
2018-11-12T19:34:08.084Z,65.85
2018-11-12T19:36:34.653Z,65.75
2018-11-12T19:39:01.260Z,66.19
2018-11-12T19:41:27.742Z,65.66
2018-11-12T19:43:54.297Z,65.63
2018-11-12T19:46:20.840Z,65.49
2018-11-12T19:48:47.378Z,65.70
2018-11-12T19:51:13.953Z,65.84
2018-11-12T19:53:40.568Z,65.67
2018-11-12T19:56:07.213Z,65.41
2018-11-12T19:58:33.713Z,66.32
2018-11-12T20:01:00.260Z,66.59
2018-11-12T20:03:27.567Z,67.08
2018-11-12T20:05:54.093Z,68.61
2018-11-12T20:08:20.678Z,68.85
2018-11-12T20:10:47.233Z,68.26
2018-11-12T20:13:13.756Z,67.64
2018-11-12T20:15:40.314Z,67.58
2018-11-12T20:18:06.980Z,67.30
2018-11-12T20:20:33.470Z,66.50
2018-11-12T20:23:00.008Z,66.57
2018-11-12T20:25:26.824Z,65.58
2018-11-12T20:27:53.313Z,66.89
2018-11-12T20:30:20.433Z,67.54
2018-11-12T20:32:46.969Z,68.41
2018-11-12T20:35:13.472Z,68.47
2018-11-12T20:37:39.981Z,67.81
2018-11-12T20:40:06.937Z,66.57
2018-11-12T20:42:33.454Z,65.86
2018-11-12T20:44:59.992Z,66.17
2018-11-12T20:47:26.659Z,67.42
2018-11-12T20:49:53.170Z,68.04
2018-11-12T20:52:19.658Z,67.88
2018-11-12T20:54:46.108Z,66.86
2018-11-12T20:57:12.605Z,66.30
2018-11-12T20:59:39.143Z,67.15
2018-11-12T21:02:05.659Z,67.02
2018-11-12T21:04:32.188Z,66.36
2018-11-12T21:06:58.641Z,66.67
2018-11-12T21:09:25.252Z,67.60
2018-11-12T21:11:51.877Z,67.78
2018-11-12T21:14:18.365Z,66.92
2018-11-12T21:16:44.961Z,66.57
2018-11-12T21:19:11.493Z,66.17
2018-11-12T21:21:38.076Z,67.68
2018-11-12T21:24:04.530Z,67.40
2018-11-12T21:26:31.260Z,67.72
2018-11-12T21:28:57.866Z,67.17
2018-11-12T21:31:24.937Z,65.83
2018-11-12T21:33:51.448Z,65.42
2018-11-12T21:36:17.970Z,65.70
2018-11-12T21:38:44.451Z,65.44
2018-11-12T21:41:10.988Z,65.33
2018-11-12T21:43:37.782Z,65.87
2018-11-12T21:46:04.811Z,65.46
2018-11-12T21:48:31.251Z,66.33
2018-11-12T21:50:57.770Z,67.28
2018-11-12T21:53:24.348Z,67.48
2018-11-12T21:55:51.012Z,67.01
2018-11-12T21:58:17.471Z,66.21
2018-11-12T22:00:44.035Z,66.02
2018-11-12T22:03:10.699Z,65.54
2018-11-12T22:05:37.609Z,65.93
2018-11-12T22:08:04.068Z,65.83
2018-11-12T22:10:30.525Z,66.14
2018-11-12T22:12:57.036Z,66.22
2018-11-12T22:15:23.508Z,66.61
2018-11-12T22:17:50.079Z,65.72
2018-11-12T22:20:16.592Z,66.46
2018-11-12T22:22:43.085Z,66.83
2018-11-12T22:25:09.543Z,67.41
2018-11-12T22:27:36.089Z,66.70
2018-11-12T22:30:02.693Z,67.33
2018-11-12T22:32:29.562Z,68.39
2018-11-12T22:34:56.184Z,68.33
2018-11-12T22:37:22.804Z,68.69
2018-11-12T22:39:49.588Z,68.93
2018-11-12T22:42:16.457Z,69.89
2018-11-12T22:44:42.931Z,68.20
2018-11-12T22:47:09.370Z,66.73
2018-11-12T22:49:35.876Z,66.99
2018-11-12T22:52:02.353Z,66.94
2018-11-12T22:54:28.794Z,66.22
2018-11-12T22:56:55.747Z,66.52
2018-11-12T22:59:22.208Z,67.02
2018-11-12T23:01:48.701Z,68.05
2018-11-12T23:04:15.501Z,68.40
2018-11-12T23:06:41.994Z,69.26
2018-11-12T23:09:08.427Z,68.23
2018-11-12T23:11:35.843Z,68.07
2018-11-12T23:14:02.357Z,68.18
2018-11-12T23:16:28.867Z,68.22
2018-11-12T23:18:55.350Z,68.21
2018-11-12T23:21:21.986Z,69.82
2018-11-12T23:23:48.478Z,70.14
2018-11-12T23:26:15.034Z,69.92
2018-11-12T23:28:41.559Z,69.07
2018-11-12T23:31:08.114Z,68.06
2018-11-12T23:33:34.758Z,67.83
2018-11-12T23:36:01.293Z,68.09
2018-11-12T23:38:27.828Z,69.26
2018-11-12T23:40:54.396Z,68.33
2018-11-12T23:43:20.832Z,67.75
2018-11-12T23:45:47.347Z,67.48
2018-11-12T23:48:13.832Z,67.86
2018-11-12T23:50:40.386Z,67.49
2018-11-12T23:53:07.127Z,67.77
2018-11-12T23:55:33.782Z,68.17
2018-11-12T23:58:00.228Z,68.61
